Hauptseite
METAR-TAF:

METAR-TAF

Flughäfen :

Kiel, Deutschland

Flughafen Kiel

Breite: 54-23N, Länge: 010-10E, Höhe: 31 m

Beobachtung

Neuester Wetterbericht von vor 38 Minuten, um 08:20 UTC
Wind 14 kt aus Ost
Temperatur 18°C
Luftfeuchtigkeit 68%
Luftdruck 1003 hPa
Sichtweite 10 km oder mehr
keine Wolken unter 1500 m und keine Kumulonimbus oder Gewitterwolken

METAR: EDHK 280820Z 09014KT CAVOK 18/12 Q1003

Zeit: 10:58 (08:58 UTC)

Prognose

Neuester Wetterbericht von vor 58 Minuten, um 08:00 UTC
Gültige Prognose vom 28 um 09 UTC bis 28 um 18 UTC
Wind 12 kt aus Ost
Sichtweite 10 km oder mehr
keine Wolken unter 1500 m und keine Kumulonimbus oder Gewitterwolken
Zeitweise
vom 28 um 09 UTC bis 28 um 18 UTC
Wind 15 kt aus Südost, Böen bis zu 25 kt

TAF: EDHK 280800Z 2809/2818 10012KT CAVOK TEMPO 2809/2818 13015G25KT

Wetterbeobachtungen und Prognosen von mehr als 4000 Flughäfen (METAR und TAF Bericht).

Die verfügbaren Stationen werden durch gelbe und rote Markierungen auf der Karte dargestellt.

Führen Sie die Maus auf sie, um den Namen der Station zu sehen.

Darauf klicken, um die Beobachtung von Wetterbeobachtungen und Prognosen zu sehen.

Um die Karte zu ändern : klicken Sie auf den grünen Tasten mit einem schwarzen Kreuz Zum Vergrößern, auf den grünen Button mit einem Gedankenstrich zu verkleinern, oder auf die grünen Pfeile für benachbarte Karten.


METAR-TAF: